Jobstown, New Jersey
Current Conditions -  °F | °C
As of 8:58 PM on Friday 21 Nov 2014 (Local Time) from KWRI Reporting Station
Clear Clear  
Wind Chill: 21°   Ceiling: Unl
Heat Index: 28°   Visibility: 10mi
Dew Point:   Wind: 6mph
Humidity: 46%   Direction: 270°W
Pressure: 30.48"   Gusts: NA
Location:  40.04°N, 74.69°W
Report Text: KWRI 220158Z AUTO 27005KT 10SM CLR M02/M13 A3048 RMK AO2 SLP327 T10251128
Loading
Personal Weather Stations






























Interactive Weather Map New forecast layout! Learn more

10-Day Weather Forecast

Advertisements
Track Severe Weather on mobile